Time;durP1;ratioP1;P1;durP2;ratioP2;P2;SDS_P1;SDS_P2;PMS_P1;PMS_P2;Temp;Humidity;BMP_temperature;BMP_pressure;BME280_temperature;BME280_humidity;BME280_pressure;Samples;Min_cycle;Max_cycle;Signal;HPM_P1;HPM_P2
2023/12/02 17:49:13;;;;;;;20.38;9.25;;;17.90;47.40;;;;;;5158254;27;20433;-56
2023/12/02 17:51:42;;;;;;;20.02;9.95;;;18.00;46.70;;;;;;5128810;22;20130;-54
2023/12/02 17:54:08;;;;;;;24.70;9.57;;;18.10;47.30;;;;;;5105978;28;20020;-50
2023/12/02 17:56:35;;;;;;;20.75;9.15;;;18.20;47.50;;;;;;5109013;28;20030;-53
2023/12/02 17:59:01;;;;;;;15.82;8.68;;;18.30;46.20;;;;;;5108847;28;20458;-49
2023/12/02 18:01:27;;;;;;;16.02;8.77;;;18.30;46.80;;;;;;5108875;28;20050;-52
2023/12/02 18:03:52;;;;;;;23.35;11.75;;;18.30;46.70;;;;;;5108348;28;20371;-54
2023/12/02 18:06:18;;;;;;;19.55;10.15;;;18.40;46.60;;;;;;5100582;28;20378;-51
2023/12/02 18:08:44;;;;;;;26.83;10.80;;;18.40;47.00;;;;;;5102189;28;20024;-51
2023/12/02 18:11:12;;;;;;;21.92;9.70;;;18.50;47.10;;;;;;5108709;28;20032;-52
2023/12/02 18:13:38;;;;;;;22.67;9.30;;;18.60;47.10;;;;;;5108928;28;20020;-52
2023/12/02 18:16:04;;;;;;;19.13;9.60;;;18.60;47.20;;;;;;5108710;28;20069;-56
2023/12/02 18:18:30;;;;;;;22.83;9.90;;;18.60;47.20;;;;;;5108235;28;20032;-51
2023/12/02 18:20:56;;;;;;;30.20;10.93;;;18.70;52.20;;;;;;5108632;28;20097;-54
2023/12/02 18:23:23;;;;;;;33.15;10.75;;;18.80;61.90;;;;;;5108568;28;20074;-51
2023/12/02 18:25:51;;;;;;;24.27;10.95;;;18.90;67.20;;;;;;5108711;28;20108;-51
2023/12/02 18:28:17;;;;;;;24.38;9.80;;;18.90;61.30;;;;;;5108397;28;20027;-50
2023/12/02 18:30:43;;;;;;;27.27;9.75;;;18.90;62.80;;;;;;5106937;28;20028;-54
2023/12/02 18:33:10;;;;;;;39.45;11.55;;;18.90;62.80;;;;;;5105424;28;20023;-47
2023/12/02 18:35:36;;;;;;;25.08;10.80;;;18.90;67.90;;;;;;5108510;28;20024;-53
2023/12/02 18:38:02;;;;;;;17.05;9.27;;;18.80;58.50;;;;;;5108025;28;20030;-48
2023/12/02 18:40:31;;;;;;;31.08;9.85;;;18.80;56.30;;;;;;5108193;28;20024;-55
2023/12/02 18:42:57;;;;;;;24.40;9.32;;;18.90;56.90;;;;;;5108359;28;20031;-55
2023/12/02 18:45:24;;;;;;;23.88;9.27;;;18.80;56.10;;;;;;5108256;28;20110;-53
2023/12/02 18:47:49;;;;;;;22.75;10.43;;;18.90;57.10;;;;;;5096688;28;20032;-50
2023/12/02 18:50:16;;;;;;;20.58;8.50;;;18.90;58.00;;;;;;5088459;28;20024;-52
2023/12/02 18:52:41;;;;;;;23.48;8.85;;;18.90;56.20;;;;;;5091332;28;20457;-49
2023/12/02 18:55:08;;;;;;;18.75;9.27;;;18.90;55.50;;;;;;5091494;28;20036;-50
2023/12/02 18:57:34;;;;;;;15.50;8.00;;;18.90;54.70;;;;;;5090743;28;20421;-52
2023/12/02 19:00:05;;;;;;;19.63;8.75;;;18.90;54.50;;;;;;5087358;28;20028;-50
2023/12/02 19:02:31;;;;;;;20.42;8.50;;;18.90;54.60;;;;;;5087780;28;20107;-50
2023/12/02 19:04:57;;;;;;;21.05;8.80;;;18.80;54.50;;;;;;5091658;28;20063;-51
2023/12/02 19:07:23;;;;;;;16.23;7.95;;;18.80;54.90;;;;;;5090678;28;20506;-53
2023/12/02 19:09:49;;;;;;;18.42;8.23;;;18.80;55.10;;;;;;5090520;28;20107;-50
2023/12/02 19:12:14;;;;;;;16.55;7.75;;;18.90;55.10;;;;;;5091133;28;20024;-54
2023/12/02 19:14:40;;;;;;;17.02;7.78;;;18.80;55.10;;;;;;5088067;28;20078;-54
2023/12/02 19:17:06;;;;;;;15.43;8.10;;;18.80;55.10;;;;;;5090103;28;20020;-49
2023/12/02 19:19:32;;;;;;;20.48;8.60;;;18.80;55.10;;;;;;5090931;28;20514;-48
2023/12/02 19:21:58;;;;;;;17.77;8.63;;;18.80;55.10;;;;;;5090694;28;20133;-48
2023/12/02 19:24:23;;;;;;;17.17;8.05;;;18.80;55.10;;;;;;5090713;28;20024;-47
2023/12/02 19:26:49;;;;;;;16.73;7.22;;;18.80;54.90;;;;;;5090804;28;20028;-46
2023/12/02 19:29:16;;;;;;;14.55;7.75;;;18.80;54.90;;;;;;5090915;28;20058;-49
2023/12/02 19:31:42;;;;;;;15.30;7.18;;;18.80;54.90;;;;;;5090481;28;20066;-51
2023/12/02 19:34:09;;;;;;;14.75;7.55;;;18.70;54.80;;;;;;5088205;28;20468;-48
2023/12/02 19:36:35;;;;;;;22.70;7.40;;;18.70;54.70;;;;;;5090075;28;20023;-47
2023/12/02 19:39:03;;;;;;;17.80;7.97;;;18.70;54.60;;;;;;5090440;28;20032;-51
2023/12/02 19:41:29;;;;;;;19.40;7.93;;;18.70;54.80;;;;;;5090618;28;20027;-49
2023/12/02 19:43:54;;;;;;;13.98;7.30;;;18.70;54.60;;;;;;5090141;28;20107;-51
2023/12/02 19:46:20;;;;;;;16.70;7.35;;;18.70;54.60;;;;;;5089659;28;20226;-47
2023/12/02 19:48:46;;;;;;;15.30;7.63;;;18.70;54.60;;;;;;5088630;28;20035;-47
2023/12/02 19:51:12;;;;;;;13.40;7.70;;;18.70;54.50;;;;;;5090389;28;20394;-49
2023/12/02 19:53:38;;;;;;;13.48;7.47;;;18.70;54.40;;;;;;5089553;28;20123;-51
2023/12/02 19:56:05;;;;;;;17.05;8.25;;;18.70;55.10;;;;;;5090552;28;20116;-48
2023/12/02 19:58:31;;;;;;;14.20;7.50;;;18.70;54.20;;;;;;5090150;28;20043;-49
2023/12/02 20:00:56;;;;;;;22.80;8.82;;;18.70;54.30;;;;;;5086546;28;20028;-49
2023/12/02 20:03:22;;;;;;;15.23;7.13;;;18.80;54.30;;;;;;5087266;28;20055;-55
2023/12/02 20:05:48;;;;;;;16.38;7.88;;;18.70;53.90;;;;;;5089607;28;20299;-49
2023/12/02 20:08:14;;;;;;;13.93;8.25;;;18.60;54.10;;;;;;5089134;28;20028;-50
2023/12/02 20:10:40;;;;;;;14.15;7.28;;;18.60;53.90;;;;;;5089407;28;20036;-47
2023/12/02 20:13:06;;;;;;;17.13;7.53;;;18.60;53.90;;;;;;5084111;28;20032;-49
2023/12/02 20:15:32;;;;;;;17.50;7.90;;;18.50;53.70;;;;;;5088564;28;20032;-49
2023/12/02 20:17:57;;;;;;;14.05;7.88;;;18.50;53.50;;;;;;5081435;28;20082;-50
2023/12/02 20:20:23;;;;;;;18.30;8.27;;;18.50;53.20;;;;;;5083384;28;20052;-49
2023/12/02 20:22:49;;;;;;;13.18;7.57;;;18.50;53.40;;;;;;5092558;28;20337;-50
2023/12/02 20:25:17;;;;;;;15.25;8.20;;;18.50;53.10;;;;;;5084692;28;20052;-46
2023/12/02 20:27:43;;;;;;;19.65;9.27;;;18.50;53.00;;;;;;5092190;28;20510;-51
2023/12/02 20:30:09;;;;;;;18.95;10.20;;;18.50;53.00;;;;;;5092491;28;20028;-48
2023/12/02 20:32:35;;;;;;;15.88;9.23;;;18.50;53.00;;;;;;5092500;28;20020;-49
2023/12/02 20:35:02;;;;;;;17.08;9.13;;;18.50;52.80;;;;;;5088392;28;20037;-48
2023/12/02 20:37:27;;;;;;;14.55;8.38;;;18.50;52.60;;;;;;5082912;28;20025;-53
2023/12/02 20:39:53;;;;;;;17.13;8.60;;;18.50;52.80;;;;;;5071998;28;20016;-48
2023/12/02 20:42:19;;;;;;;16.15;8.30;;;18.50;52.50;;;;;;5071790;28;20044;-49
2023/12/02 20:44:45;;;;;;;12.75;7.55;;;18.50;52.50;;;;;;5071939;28;20554;-50
2023/12/02 20:47:11;;;;;;;14.07;8.18;;;18.50;52.50;;;;;;5071700;28;20531;-47
2023/12/02 20:49:36;;;;;;;14.40;8.25;;;18.50;52.50;;;;;;5071708;28;20020;-48
2023/12/02 20:52:02;;;;;;;13.52;7.90;;;18.50;52.50;;;;;;5075722;28;20402;-47
2023/12/02 20:54:28;;;;;;;14.93;8.00;;;18.50;52.30;;;;;;5091937;28;20024;-46
2023/12/02 20:56:54;;;;;;;15.23;8.50;;;18.50;52.30;;;;;;5073777;28;20548;-47
2023/12/02 20:59:20;;;;;;;13.65;7.90;;;18.50;52.20;;;;;;5091435;28;20487;-47
2023/12/02 21:01:46;;;;;;;13.50;7.70;;;18.50;52.20;;;;;;5091791;28;20023;-50
2023/12/02 21:04:12;;;;;;;12.15;6.85;;;18.50;52.10;;;;;;5092167;28;20099;-47
2023/12/02 21:06:38;;;;;;;17.85;8.57;;;18.50;51.90;;;;;;5091801;28;20028;-49
2023/12/02 21:09:04;;;;;;;13.23;7.95;;;18.40;52.00;;;;;;5087291;28;20025;-50
2023/12/02 21:11:29;;;;;;;14.15;7.63;;;18.40;51.80;;;;;;5091085;28;20095;-47
2023/12/02 21:13:55;;;;;;;13.88;7.72;;;18.40;51.70;;;;;;5090240;28;20024;-48
2023/12/02 21:16:21;;;;;;;14.40;7.57;;;18.50;51.70;;;;;;5091624;28;20078;-47
2023/12/02 21:18:47;;;;;;;14.05;7.82;;;18.40;51.60;;;;;;5091203;28;20499;-52
2023/12/02 21:21:13;;;;;;;13.00;7.22;;;18.50;51.60;;;;;;5083866;28;20388;-50
2023/12/02 21:23:39;;;;;;;12.75;7.40;;;18.50;51.60;;;;;;5091614;28;20021;-47
2023/12/02 21:26:05;;;;;;;14.10;7.07;;;18.50;51.60;;;;;;5091521;28;20082;-51
2023/12/02 21:28:32;;;;;;;17.33;6.28;;;18.50;53.20;;;;;;5088922;28;20035;-48
2023/12/02 21:31:01;;;;;;;13.45;6.50;;;18.60;54.40;;;;;;5084788;28;20117;-51
2023/12/02 21:33:33;;;;;;;21.10;7.28;;;18.70;55.00;;;;;;5087874;28;20036;-46
2023/12/02 21:36:00;;;;;;;14.80;6.75;;;18.70;54.80;;;;;;5090307;28;20036;-47
2023/12/02 21:38:43;;;;;;;32.35;7.18;;;18.70;54.90;;;;;;5089988;28;20036;-48
2023/12/02 21:41:16;;;;;;;13.35;5.78;;;18.70;55.70;;;;;;5091736;28;20467;-49
2023/12/02 21:43:44;;;;;;;12.45;6.75;;;18.70;56.30;;;;;;5087142;28;20032;-47
2023/12/02 21:46:22;;;;;;;17.00;6.63;;;18.80;55.90;;;;;;5091376;28;20111;-54
2023/12/02 21:49:02;;;;;;;18.70;6.60;;;18.70;56.00;;;;;;5089736;28;20035;-50
2023/12/02 21:51:32;;;;;;;;;;;18.70;55.50;;;;;;5090957;28;20471;-51
2023/12/02 21:54:03;;;;;;;25.55;9.65;;;18.80;55.50;;;;;;5090168;28;19908;-53
2023/12/02 21:56:43;;;;;;;13.43;6.10;;;18.70;54.10;;;;;;5087448;28;20990;-50
2023/12/02 21:59:22;;;;;;;18.95;7.47;;;18.70;55.10;;;;;;5079574;28;20499;-50
2023/12/02 22:01:55;;;;;;;17.63;8.93;;;18.70;55.70;;;;;;5086104;28;20054;-47
2023/12/02 22:04:28;;;;;;;20.48;8.00;;;18.60;55.00;;;;;;5084048;28;20602;-50
2023/12/02 22:06:55;;;;;;;19.13;7.72;;;18.60;55.20;;;;;;5091210;28;20040;-48
2023/12/02 22:09:26;;;;;;;13.18;7.43;;;18.60;55.10;;;;;;5090490;28;20032;-56
2023/12/02 22:11:53;;;;;;;16.35;8.48;;;18.60;54.10;;;;;;5089602;28;20031;-49
2023/12/02 22:14:21;;;;;;;16.70;8.27;;;18.60;55.20;;;;;;5081087;28;20100;-52
2023/12/02 22:16:57;;;;;;;16.60;8.13;;;18.60;55.00;;;;;;5087541;28;20024;-50
2023/12/02 22:19:23;;;;;;;17.08;8.45;;;18.60;55.10;;;;;;5087520;28;20076;-50
2023/12/02 22:21:50;;;;;;;19.73;8.07;;;18.60;54.90;;;;;;5091849;28;20047;-47
2023/12/02 22:24:15;;;;;;;16.17;7.70;;;18.60;55.20;;;;;;5083653;28;20066;-46
2023/12/02 22:26:41;;;;;;;19.05;7.85;;;18.60;55.00;;;;;;5093011;28;20020;-46
2023/12/02 22:29:09;;;;;;;21.73;7.80;;;18.60;55.10;;;;;;5093643;28;20486;-50
2023/12/02 22:31:38;;;;;;;14.52;7.60;;;18.60;55.20;;;;;;5082766;28;20035;-47
2023/12/02 22:34:22;;;;;;;13.73;7.73;;;18.60;54.90;;;;;;5088502;28;20052;-47
2023/12/02 22:36:48;;;;;;;13.77;7.20;;;18.60;55.30;;;;;;5086859;28;20032;-53
2023/12/02 22:39:23;;;;;;;13.82;7.25;;;18.60;55.20;;;;;;5094299;28;20024;-47
2023/12/02 22:41:53;;;;;;;13.43;7.40;;;18.60;55.10;;;;;;5094517;28;20035;-46
2023/12/02 22:44:20;;;;;;;15.95;7.20;;;18.60;55.10;;;;;;5094418;28;20107;-47
2023/12/02 22:46:58;;;;;;;15.88;7.80;;;18.60;54.90;;;;;;5094197;28;20032;-52
2023/12/02 22:49:27;;;;;;;17.40;7.97;;;18.60;54.90;;;;;;5093935;28;20020;-49
2023/12/02 22:51:56;;;;;;;24.58;8.55;;;18.70;55.10;;;;;;5088871;28;20032;-49
2023/12/02 22:54:37;;;;;;;16.60;7.60;;;18.70;57.80;;;;;;5088498;28;20127;-50
2023/12/02 22:57:03;;;;;;;22.75;14.98;;;18.70;56.40;;;;;;5083948;28;20050;-46
2023/12/02 22:59:29;;;;;;;22.98;16.42;;;18.10;45.40;;;;;;5087670;28;20503;-48
2023/12/02 23:01:55;;;;;;;25.23;16.73;;;17.00;41.00;;;;;;5088061;28;20044;-52
2023/12/02 23:04:42;;;;;;;23.50;15.32;;;16.70;40.40;;;;;;5090067;28;20021;-48
2023/12/02 23:07:10;;;;;;;21.83;14.23;;;17.00;42.50;;;;;;5089689;28;20031;-50
2023/12/02 23:09:54;;;;;;;20.52;13.35;;;17.30;43.40;;;;;;5082580;28;20034;-47
2023/12/02 23:12:31;;;;;;;17.70;11.38;;;17.50;44.40;;;;;;5088205;28;20052;-50
2023/12/02 23:15:16;;;;;;;18.83;11.75;;;17.70;45.70;;;;;;5089836;28;20082;-45
2023/12/02 23:17:41;;;;;;;16.73;10.27;;;17.80;46.60;;;;;;5085966;28;20090;-46
2023/12/02 23:20:27;;;;;;;15.30;10.38;;;17.90;47.10;;;;;;5088772;28;20028;-46
2023/12/02 23:22:53;;;;;;;14.05;9.27;;;18.00;47.60;;;;;;5086730;28;20051;-46
2023/12/02 23:25:21;;;;;;;15.25;9.93;;;18.10;48.00;;;;;;5088905;28;20063;-50
2023/12/02 23:27:47;;;;;;;15.23;9.45;;;18.10;48.20;;;;;;5087729;28;20547;-55
2023/12/02 23:30:13;;;;;;;14.98;9.10;;;18.20;48.60;;;;;;5088240;28;20111;-46
2023/12/02 23:32:39;;;;;;;13.70;8.80;;;18.20;48.90;;;;;;5087192;28;20055;-48
2023/12/02 23:35:05;;;;;;;14.38;8.77;;;18.20;48.90;;;;;;5067972;28;20032;-46
2023/12/02 23:37:31;;;;;;;14.20;8.55;;;18.20;49.20;;;;;;5084563;28;20020;-54
2023/12/02 23:39:57;;;;;;;12.50;7.72;;;18.20;49.40;;;;;;5086986;28;20518;-46
2023/12/02 23:42:35;;;;;;;16.38;7.95;;;18.20;49.40;;;;;;5088921;28;20055;-48
2023/12/02 23:45:01;;;;;;;11.63;7.22;;;18.20;49.50;;;;;;5087488;28;20055;-46
2023/12/02 23:47:27;;;;;;;13.63;7.25;;;18.30;49.80;;;;;;5087716;28;20058;-48
2023/12/02 23:49:52;;;;;;;14.13;8.00;;;18.30;50.70;;;;;;5089456;28;20028;-46
2023/12/02 23:52:18;;;;;;;12.73;7.00;;;18.30;50.60;;;;;;5125746;22;20414;-46
2023/12/02 23:54:44;;;;;;;12.10;6.35;;;18.30;50.40;;;;;;5109386;28;20048;-51
2023/12/02 23:57:10;;;;;;;11.02;6.80;;;18.30;50.60;;;;;;5108242;28;20051;-53
2023/12/02 23:59:36;;;;;;;12.30;6.60;;;18.30;50.60;;;;;;5104743;28;20031;-47
